PWSweather.com
Personal Weather Stations
Station Observations
UISISLE1
Newport, Isle ofWight, ISLE OF WIGHT PO30 2JX

NewportIsle ofWight, ISLE OF WIGHT PO30 2JX

Lat: 50.72, Lon: -1.27

Elevation: 45

Station Type: Davis Vantage Pro Plus

http://www.isleofwightweather.co.uk

High Low Average
Temperature 75.8°F24.3°C 51.8°F11.0°C 64.0°F17.8°C
Dew Point 63.5°F17.5°C 49.3°F9.6°C 57.1°F13.9°C
Winds 5.9 mph 9.5 kmh Calm Calm 1.0 mph S1.6 kmh S
Wind Gusts 11.0 mph17.7 kmh -- 3.0 mph4.8 kmh
Humidity 96% 60% 79%
Pressure 30.18 in1022.0 mb 30.14 in1020.7 mb -
Precipitation 0.00 in0.0 mm - -
Hour Temp Dew Point Humidity Winds Wind Gusts Pressure Precip Precip Rate Daily Precip Total
12:00 AM 56.1°F13.4°C 52.6°F11.4°C 88% Calm Calm -- 30.14 in1020.7 mb - 0.00 in0.0 mm 0.00 in0.0 mm
12:15 AM 55.9°F13.3°C 52.7°F11.5°C 89% Calm Calm -- 30.14 in1020.7 mb - 0.00 in0.0 mm 0.00 in0.0 mm
12:30 AM 55.5°F13.1°C 52.3°F11.3°C 89% Calm Calm -- 30.14 in1020.7 mb - 0.00 in0.0 mm 0.00 in0.0 mm
12:45 AM 55.1°F12.8°C 52.0°F11.1°C 89% Calm Calm -- 30.14 in1020.7 mb - 0.00 in0.0 mm 0.00 in0.0 mm
01:00 AM 54.9°F12.7°C 51.7°F10.9°C 89% Calm Calm -- 30.14 in1020.7 mb - 0.00 in0.0 mm 0.00 in0.0 mm
01:15 AM 54.7°F12.6°C 51.8°F11.0°C 90% Calm Calm -- 30.14 in1020.7 mb - 0.00 in0.0 mm 0.00 in0.0 mm
01:30 AM 54.6°F12.6°C 51.7°F10.9°C 90% Calm Calm -- 30.14 in1020.7 mb - 0.00 in0.0 mm 0.00 in0.0 mm
01:45 AM 54.4°F12.4°C 51.5°F10.8°C 90% Calm Calm -- 30.14 in1020.7 mb - 0.00 in0.0 mm 0.00 in0.0 mm
02:00 AM 54.2°F12.3°C 51.3°F10.7°C 90% Calm Calm -- 30.14 in1020.7 mb - 0.00 in0.0 mm 0.00 in0.0 mm
02:15 AM 54.0°F12.2°C 51.1°F10.6°C 90% Calm Calm -- 30.14 in1020.7 mb - 0.00 in0.0 mm 0.00 in0.0 mm
02:30 AM 53.8°F12.1°C 51.2°F10.7°C 91% Calm Calm -- 30.14 in1020.7 mb - 0.00 in0.0 mm 0.00 in0.0 mm
02:45 AM 53.6°F12.0°C 50.7°F10.4°C 90% Calm Calm -- 30.14 in1020.7 mb - 0.00 in0.0 mm 0.00 in0.0 mm
03:00 AM 53.3°F11.8°C 50.7°F10.4°C 91% Calm Calm -- 30.14 in1020.7 mb - 0.00 in0.0 mm 0.00 in0.0 mm
03:15 AM 53.0°F11.7°C 50.4°F10.2°C 91% Calm Calm -- 30.14 in1020.7 mb - 0.00 in0.0 mm 0.00 in0.0 mm
03:30 AM 52.7°F11.5°C 50.2°F10.1°C 91% Calm Calm -- 30.14 in1020.7 mb - 0.00 in0.0 mm 0.00 in0.0 mm
03:45 AM 52.5°F11.4°C 49.9°F9.9°C 91% Calm Calm -- 30.15 in1021.0 mb - 0.00 in0.0 mm 0.00 in0.0 mm
04:00 AM 52.2°F11.2°C 49.7°F9.8°C 91% Calm Calm -- 30.14 in1020.7 mb - 0.00 in0.0 mm 0.00 in0.0 mm
04:15 AM 52.0°F11.1°C 49.5°F9.7°C 91% Calm Calm -- 30.14 in1020.7 mb - 0.00 in0.0 mm 0.00 in0.0 mm
04:30 AM 51.9°F11.1°C 49.3°F9.6°C 91% Calm Calm -- 30.15 in1021.0 mb - 0.00 in0.0 mm 0.00 in0.0 mm
04:45 AM 51.8°F11.0°C 49.3°F9.6°C 91% Calm Calm -- 30.15 in1021.0 mb - 0.00 in0.0 mm 0.00 in0.0 mm
05:00 AM 51.8°F11.0°C 49.3°F9.6°C 91% Calm Calm -- 30.15 in1021.0 mb - 0.00 in0.0 mm 0.00 in0.0 mm
05:15 AM 51.9°F11.1°C 49.6°F9.8°C 92% Calm Calm -- 30.15 in1021.0 mb - 0.00 in0.0 mm 0.00 in0.0 mm
05:30 AM 51.9°F11.1°C 49.6°F9.8°C 92% Calm Calm -- 30.15 in1021.0 mb - 0.00 in0.0 mm 0.00 in0.0 mm
05:45 AM 51.9°F11.1°C 49.6°F9.8°C 92% Calm Calm -- 30.16 in1021.3 mb - 0.00 in0.0 mm 0.00 in0.0 mm
06:00 AM 51.9°F11.1°C 49.6°F9.8°C 92% Calm Calm -- 30.16 in1021.3 mb - 0.00 in0.0 mm 0.00 in0.0 mm
06:15 AM 51.9°F11.1°C 49.6°F9.8°C 92% Calm Calm -- 30.16 in1021.3 mb - 0.00 in0.0 mm 0.00 in0.0 mm
06:30 AM 56.4°F13.6°C 55.0°F12.8°C 95% Calm Calm -- 30.16 in1021.3 mb - 0.00 in0.0 mm 0.00 in0.0 mm
06:45 AM 57.8°F14.3°C 56.3°F13.5°C 95% 0.6 mph WSW1.0 kmh WSW 2.0 mph3.2 kmh 30.16 in1021.3 mb - 0.00 in0.0 mm 0.00 in0.0 mm
07:00 AM 59.5°F15.3°C 58.1°F14.5°C 95% Calm Calm -- 30.16 in1021.3 mb - 0.00 in0.0 mm 0.00 in0.0 mm
07:15 AM 60.4°F15.8°C 58.9°F14.9°C 95% Calm Calm -- 30.16 in1021.3 mb - 0.00 in0.0 mm 0.00 in0.0 mm
07:30 AM 61.2°F16.2°C 60.0°F15.6°C 96% 0.3 mph NE0.5 kmh NE 2.0 mph3.2 kmh 30.16 in1021.3 mb - 0.00 in0.0 mm 0.00 in0.0 mm
07:45 AM 61.9°F16.6°C 60.7°F15.9°C 96% Calm Calm 1.0 mph1.6 kmh 30.16 in1021.3 mb - 0.00 in0.0 mm 0.00 in0.0 mm
08:00 AM 63.2°F17.3°C 62.0°F16.7°C 96% 0.3 mph NE0.5 kmh NE 1.0 mph1.6 kmh 30.16 in1021.3 mb - 0.00 in0.0 mm 0.00 in0.0 mm
08:15 AM 64.7°F18.2°C 63.3°F17.4°C 95% 5.9 mph NE9.5 kmh NE 9.0 mph14.5 kmh 30.16 in1021.3 mb - 0.00 in0.0 mm 0.00 in0.0 mm
08:30 AM 65.9°F18.8°C 63.5°F17.5°C 92% 1.1 mph E1.8 kmh E 2.0 mph3.2 kmh 30.17 in1021.7 mb - 0.00 in0.0 mm 0.00 in0.0 mm
08:45 AM 67.1°F19.5°C 62.4°F16.9°C 85% 0.4 mph ENE0.6 kmh ENE 1.0 mph1.6 kmh 30.17 in1021.7 mb - 0.00 in0.0 mm 0.00 in0.0 mm
09:00 AM 68.2°F20.1°C 61.5°F16.4°C 79% Calm Calm -- 30.17 in1021.7 mb - 0.00 in0.0 mm 0.00 in0.0 mm
09:15 AM 69.2°F20.7°C 62.0°F16.7°C 78% 2.4 mph SE3.9 kmh SE 4.0 mph6.4 kmh 30.17 in1021.7 mb - 0.00 in0.0 mm 0.00 in0.0 mm
09:30 AM 70.2°F21.2°C 62.7°F17.1°C 77% 4.1 mph ESE6.6 kmh ESE 8.0 mph12.9 kmh 30.17 in1021.7 mb - 0.00 in0.0 mm 0.00 in0.0 mm
09:45 AM 71.8°F22.1°C 62.7°F17.1°C 73% 3.3 mph ESE5.3 kmh ESE 9.0 mph14.5 kmh 30.17 in1021.7 mb - 0.00 in0.0 mm 0.00 in0.0 mm
10:00 AM 73.0°F22.8°C 62.6°F17.0°C 70% 0.7 mph NE1.1 kmh NE 4.0 mph6.4 kmh 30.17 in1021.7 mb - 0.00 in0.0 mm 0.00 in0.0 mm
10:15 AM 72.4°F22.4°C 61.7°F16.5°C 69% 2.9 mph E4.7 kmh E 7.0 mph11.3 kmh 30.17 in1021.7 mb - 0.00 in0.0 mm 0.00 in0.0 mm
10:30 AM 73.6°F23.1°C 62.8°F17.1°C 69% 5.1 mph NE8.2 kmh NE 11.0 mph17.7 kmh 30.17 in1021.7 mb - 0.00 in0.0 mm 0.00 in0.0 mm
10:45 AM 74.2°F23.4°C 62.5°F16.9°C 67% 3.1 mph S5.0 kmh S 6.0 mph9.7 kmh 30.17 in1021.7 mb - 0.00 in0.0 mm 0.00 in0.0 mm
11:00 AM 74.7°F23.7°C 62.1°F16.7°C 65% 2.4 mph ESE3.9 kmh ESE 4.0 mph6.4 kmh 30.17 in1021.7 mb - 0.00 in0.0 mm 0.00 in0.0 mm
11:15 AM 75.8°F24.3°C 62.8°F17.1°C 64% 1.3 mph WSW2.1 kmh WSW 1.0 mph1.6 kmh 30.17 in1021.7 mb - 0.00 in0.0 mm 0.00 in0.0 mm
11:30 AM 74.9°F23.8°C 61.9°F16.6°C 64% 2.5 mph SW4.0 kmh SW 8.0 mph12.9 kmh 30.18 in1022.0 mb - 0.00 in0.0 mm 0.00 in0.0 mm
11:45 AM 72.7°F22.6°C 61.1°F16.2°C 67% 2.0 mph WSW3.2 kmh WSW 5.0 mph8.0 kmh 30.18 in1022.0 mb - 0.00 in0.0 mm 0.00 in0.0 mm
12:00 PM 71.6°F22.0°C 61.3°F16.3°C 70% 3.9 mph WSW6.3 kmh WSW 7.0 mph11.3 kmh 30.17 in1021.7 mb - 0.00 in0.0 mm 0.00 in0.0 mm
12:15 PM 71.2°F21.8°C 61.7°F16.5°C 72% 2.0 mph W3.2 kmh W 4.1 mph6.6 kmh 30.17 in1021.7 mb - 0.00 in0.0 mm 0.00 in0.0 mm
12:30 PM 71.5°F21.9°C 62.0°F16.7°C 72% 1.7 mph SW2.7 kmh SW 4.0 mph6.4 kmh 30.17 in1021.7 mb - 0.00 in0.0 mm 0.00 in0.0 mm
12:45 PM 71.5°F21.9°C 61.2°F16.2°C 70% 1.7 mph SSW2.7 kmh SSW 3.0 mph4.8 kmh 30.17 in1021.7 mb - 0.00 in0.0 mm 0.00 in0.0 mm
01:00 PM 71.8°F22.1°C 61.5°F16.4°C 70% 4.2 mph SE6.8 kmh SE 8.0 mph12.9 kmh 30.17 in1021.7 mb - 0.00 in0.0 mm 0.00 in0.0 mm
01:15 PM 73.6°F23.1°C 62.4°F16.9°C 68% 5.4 mph SW8.7 kmh SW 8.0 mph12.9 kmh 30.17 in1021.7 mb - 0.00 in0.0 mm 0.00 in0.0 mm
01:30 PM 75.6°F24.2°C 62.1°F16.7°C 63% 3.1 mph S5.0 kmh S 5.1 mph8.2 kmh 30.16 in1021.3 mb - 0.00 in0.0 mm 0.00 in0.0 mm
01:45 PM 75.4°F24.1°C 60.5°F15.8°C 60% 2.2 mph ESE3.5 kmh ESE 4.0 mph6.4 kmh 30.17 in1021.7 mb - 0.00 in0.0 mm 0.00 in0.0 mm
02:00 PM 74.7°F23.7°C 60.4°F15.8°C 61% 1.2 mph SW1.9 kmh SW 2.0 mph3.2 kmh 30.16 in1021.3 mb - 0.00 in0.0 mm 0.00 in0.0 mm
02:15 PM 74.2°F23.4°C 60.8°F16.0°C 63% 4.6 mph E7.4 kmh E 8.0 mph12.9 kmh 30.16 in1021.3 mb - 0.00 in0.0 mm 0.00 in0.0 mm
02:30 PM 73.4°F23.0°C 60.5°F15.8°C 64% 3.3 mph E5.3 kmh E 5.0 mph8.0 kmh 30.16 in1021.3 mb - 0.00 in0.0 mm 0.00 in0.0 mm
02:45 PM 73.4°F23.0°C 60.5°F15.8°C 64% 2.4 mph E3.9 kmh E 5.0 mph8.0 kmh 30.16 in1021.3 mb - 0.00 in0.0 mm 0.00 in0.0 mm
03:00 PM 72.8°F22.7°C 60.3°F15.7°C 65% 0.1 mph SE0.2 kmh SE 2.0 mph3.2 kmh 30.16 in1021.3 mb - 0.00 in0.0 mm 0.00 in0.0 mm
03:15 PM 72.5°F22.5°C 60.1°F15.6°C 65% 1.9 mph SE3.1 kmh SE 3.0 mph4.8 kmh 30.16 in1021.3 mb - 0.00 in0.0 mm 0.00 in0.0 mm
03:30 PM 72.5°F22.5°C 60.5°F15.8°C 66% 1.0 mph ENE1.6 kmh ENE 3.0 mph4.8 kmh 30.16 in1021.3 mb - 0.00 in0.0 mm 0.00 in0.0 mm
03:45 PM 73.2°F22.9°C 60.7°F15.9°C 65% 0.7 mph SSE1.1 kmh SSE 3.0 mph4.8 kmh 30.15 in1021.0 mb - 0.00 in0.0 mm 0.00 in0.0 mm
04:00 PM 73.7°F23.2°C 60.8°F16.0°C 64% 0.8 mph ESE1.3 kmh ESE 2.0 mph3.2 kmh 30.15 in1021.0 mb - 0.00 in0.0 mm 0.00 in0.0 mm
04:15 PM 73.5°F23.1°C 60.6°F15.9°C 64% 1.6 mph S2.6 kmh S 3.0 mph4.8 kmh 30.15 in1021.0 mb - 0.00 in0.0 mm 0.00 in0.0 mm
04:30 PM 72.9°F22.7°C 60.5°F15.8°C 65% 0.5 mph S0.8 kmh S 5.0 mph8.0 kmh 30.15 in1021.0 mb - 0.00 in0.0 mm 0.00 in0.0 mm
04:45 PM 72.4°F22.4°C 60.4°F15.8°C 66% 1.5 mph S2.4 kmh S 8.0 mph12.9 kmh 30.15 in1021.0 mb - 0.00 in0.0 mm 0.00 in0.0 mm
05:00 PM 71.8°F22.1°C 59.8°F15.4°C 66% 2.5 mph SSW4.0 kmh SSW 6.0 mph9.7 kmh 30.15 in1021.0 mb - 0.00 in0.0 mm 0.00 in0.0 mm
05:15 PM 71.3°F21.8°C 59.7°F15.4°C 67% 4.7 mph SW7.6 kmh SW 9.0 mph14.5 kmh 30.16 in1021.3 mb - 0.00 in0.0 mm 0.00 in0.0 mm
05:30 PM 70.4°F21.3°C 59.3°F15.2°C 68% 4.9 mph SW7.9 kmh SW 7.0 mph11.3 kmh 30.16 in1021.3 mb - 0.00 in0.0 mm 0.00 in0.0 mm
05:45 PM 69.5°F20.8°C 58.8°F14.9°C 69% 2.5 mph WSW4.0 kmh WSW 6.0 mph9.7 kmh 30.16 in1021.3 mb - 0.00 in0.0 mm 0.00 in0.0 mm
06:00 PM 68.9°F20.5°C 59.1°F15.1°C 71% 4.6 mph SW7.4 kmh SW 6.0 mph9.7 kmh 30.17 in1021.7 mb - 0.00 in0.0 mm 0.00 in0.0 mm
06:15 PM 68.7°F20.4°C 59.3°F15.2°C 72% 4.6 mph SW7.4 kmh SW 6.0 mph9.7 kmh 30.16 in1021.3 mb - 0.00 in0.0 mm 0.00 in0.0 mm
06:30 PM 68.6°F20.3°C 59.6°F15.3°C 73% 1.1 mph SW1.8 kmh SW 4.0 mph6.4 kmh 30.16 in1021.3 mb - 0.00 in0.0 mm 0.00 in0.0 mm
06:45 PM 68.6°F20.3°C 59.2°F15.1°C 72% 4.3 mph SW6.9 kmh SW 6.0 mph9.7 kmh 30.16 in1021.3 mb - 0.00 in0.0 mm 0.00 in0.0 mm
07:00 PM 68.5°F20.3°C 59.5°F15.3°C 73% 2.3 mph SW3.7 kmh SW 4.0 mph6.4 kmh 30.16 in1021.3 mb - 0.00 in0.0 mm 0.00 in0.0 mm
07:15 PM 68.2°F20.1°C 59.3°F15.2°C 73% 1.8 mph SW2.9 kmh SW 3.0 mph4.8 kmh 30.16 in1021.3 mb - 0.00 in0.0 mm 0.00 in0.0 mm
07:30 PM 67.7°F19.8°C 58.8°F14.9°C 73% 2.3 mph SW3.7 kmh SW 3.0 mph4.8 kmh 30.16 in1021.3 mb - 0.00 in0.0 mm 0.00 in0.0 mm
07:45 PM 67.0°F19.4°C 58.1°F14.5°C 73% 0.4 mph SSW0.6 kmh SSW 3.0 mph4.8 kmh 30.17 in1021.7 mb - 0.00 in0.0 mm 0.00 in0.0 mm
08:00 PM 66.1°F18.9°C 57.6°F14.2°C 74% 0.3 mph SW0.5 kmh SW 4.0 mph6.4 kmh 30.17 in1021.7 mb - 0.00 in0.0 mm 0.00 in0.0 mm
08:15 PM 65.4°F18.6°C 57.3°F14.1°C 75% Calm Calm -- 30.17 in1021.7 mb - 0.00 in0.0 mm 0.00 in0.0 mm
08:30 PM 64.8°F18.2°C 57.1°F13.9°C 76% Calm Calm -- 30.17 in1021.7 mb - 0.00 in0.0 mm 0.00 in0.0 mm
08:45 PM 64.0°F17.8°C 56.7°F13.7°C 77% Calm Calm -- 30.17 in1021.7 mb - 0.00 in0.0 mm 0.00 in0.0 mm
09:00 PM 63.3°F17.4°C 56.6°F13.7°C 79% Calm Calm -- 30.17 in1021.7 mb - 0.00 in0.0 mm 0.00 in0.0 mm
09:15 PM 62.5°F16.9°C 56.2°F13.4°C 80% Calm Calm -- 30.18 in1022.0 mb - 0.00 in0.0 mm 0.00 in0.0 mm
09:30 PM 61.8°F16.6°C 55.5°F13.1°C 80% Calm Calm -- 30.18 in1022.0 mb - 0.00 in0.0 mm 0.00 in0.0 mm
09:45 PM 61.1°F16.2°C 55.5°F13.1°C 82% Calm Calm -- 30.18 in1022.0 mb - 0.00 in0.0 mm 0.00 in0.0 mm
10:00 PM 60.5°F15.8°C 55.3°F12.9°C 83% Calm Calm -- 30.18 in1022.0 mb - 0.00 in0.0 mm 0.00 in0.0 mm
10:15 PM 60.0°F15.6°C 54.8°F12.7°C 83% Calm Calm -- 30.18 in1022.0 mb - 0.00 in0.0 mm 0.00 in0.0 mm
10:30 PM 59.5°F15.3°C 54.3°F12.4°C 83% Calm Calm -- 30.18 in1022.0 mb - 0.00 in0.0 mm 0.00 in0.0 mm
10:45 PM 59.1°F15.1°C 54.3°F12.4°C 84% Calm Calm -- 30.18 in1022.0 mb - 0.00 in0.0 mm 0.00 in0.0 mm
11:00 PM 58.7°F14.8°C 53.9°F12.2°C 84% Calm Calm -- 30.18 in1022.0 mb - 0.00 in0.0 mm 0.00 in0.0 mm
11:15 PM 58.4°F14.7°C 53.9°F12.2°C 85% Calm Calm -- 30.18 in1022.0 mb - 0.00 in0.0 mm 0.00 in0.0 mm
11:30 PM 58.1°F14.5°C 53.6°F12.0°C 85% Calm Calm -- 30.18 in1022.0 mb - 0.00 in0.0 mm 0.00 in0.0 mm
11:45 PM 57.7°F14.3°C 53.2°F11.8°C 85% Calm Calm -- 30.18 in1022.0 mb - 0.00 in0.0 mm 0.00 in0.0 mm